Time;durP1;ratioP1;P1;durP2;ratioP2;P2;SDS_P1;SDS_P2;PMS_P1;PMS_P2;Temp;Humidity;BMP_temperature;BMP_pressure;BME280_temperature;BME280_humidity;BME280_pressure;Samples;Min_cycle;Max_cycle;Signal;HPM_P1;HPM_P2
2022/04/24 00:02:17;;;;;;;;;15.75;15.00;;;;;16.57;52.94;99214.41;5051905;28;45539;-83
2022/04/24 00:04:43;;;;;;;;;15.25;14.75;;;;;16.69;52.89;99232.78;5051951;28;45640;-83
2022/04/24 00:07:08;;;;;;;;;15.75;15.75;;;;;16.57;52.87;99219.69;5052130;28;45712;-83
2022/04/24 00:09:34;;;;;;;;;14.00;14.00;;;;;16.72;52.91;99238.09;5052050;28;45419;-83
2022/04/24 00:12:00;;;;;;;;;15.25;15.00;;;;;16.44;53.00;99187.16;5070205;28;45521;-83
2022/04/24 00:14:26;;;;;;;;;15.00;14.50;;;;;16.82;53.08;99254.75;5070773;28;45594;-84
2022/04/24 00:16:52;;;;;;;;;19.75;17.75;;;;;16.77;52.72;99244.19;5051320;28;45470;-84
2022/04/24 00:19:19;;;;;;;;;15.25;15.00;;;;;16.58;52.85;99213.50;5070814;28;45563;-84
2022/04/24 00:21:44;;;;;;;;;17.25;16.00;;;;;16.61;53.12;99222.28;5051691;28;45430;-84
2022/04/24 00:24:10;;;;;;;;;15.00;14.75;;;;;16.78;53.09;99245.94;5069839;28;46344;-84
2022/04/24 00:26:36;;;;;;;;;14.25;14.25;;;;;16.47;52.96;99188.00;5070280;28;45879;-83
2022/04/24 00:29:02;;;;;;;;;15.00;15.00;;;;;16.55;53.34;99197.59;5069781;28;45671;-83
2022/04/24 00:31:27;;;;;;;;;14.25;14.25;;;;;16.56;53.43;99200.25;5052245;28;45589;-83
2022/04/24 00:33:52;;;;;;;;;16.25;16.00;;;;;16.43;53.58;99196.91;5069793;28;46059;-83
2022/04/24 00:36:17;;;;;;;;;16.67;16.00;;;;;16.43;52.90;99196.03;5051566;28;45548;-83
2022/04/24 00:38:43;;;;;;;;;15.50;15.00;;;;;16.44;52.81;99203.06;5069655;28;45528;-83
2022/04/24 00:41:08;;;;;;;;;16.00;15.50;;;;;16.49;52.97;99210.06;5070320;28;45491;-83
2022/04/24 00:43:33;;;;;;;;;14.75;14.75;;;;;16.22;53.22;99168.91;5070036;28;45367;-84
2022/04/24 00:46:46;;;;;;;;;18.25;17.00;;;;;16.60;53.15;99238.22;5069595;28;45488;-83
2022/04/24 00:49:13;;;;;;;;;16.75;16.25;;;;;16.51;53.50;99221.53;5014894;28;45482;-83
2022/04/24 00:51:39;;;;;;;;;18.00;16.75;;;;;16.55;53.32;99237.41;4990043;28;45628;-84
2022/04/24 00:54:10;;;;;;;;;17.25;17.00;;;;;16.23;53.17;99202.47;5022117;28;47124;-83
2022/04/24 00:56:40;;;;;;;;;18.75;18.25;;;;;16.37;53.81;99246.50;5051847;28;45951;-83
2022/04/24 00:59:07;;;;;;;;;15.50;15.00;;;;;15.87;53.67;99174.66;5069551;28;45404;-83
2022/04/24 01:01:33;;;;;;;;;18.00;18.00;;;;;15.82;53.78;99176.50;5069588;28;45669;-83
2022/04/24 01:04:04;;;;;;;;;18.50;17.00;;;;;15.88;54.21;99202.91;5051139;28;48391;-83
2022/04/24 01:06:34;;;;;;;;;18.25;16.25;;;;;15.94;54.39;99229.31;5069845;28;45893;-83
2022/04/24 01:09:17;;;;;;;;;17.75;17.75;;;;;16.00;54.40;99244.28;5069511;28;45363;-83
2022/04/24 01:11:47;;;;;;;;;15.50;15.00;;;;;15.67;54.44;99201.38;5051573;28;45545;-84
2022/04/24 01:14:13;;;;;;;;;17.00;17.00;;;;;15.89;54.77;99246.19;5068860;28;46759;-83
2022/04/24 01:16:38;;;;;;;;;12.25;11.00;;;;;15.50;54.88;99184.75;5069589;28;45518;-83
2022/04/24 01:19:05;;;;;;;;;19.00;18.00;;;;;15.48;55.00;99195.38;5050920;28;45410;-84
2022/04/24 01:21:34;;;;;;;;;21.00;20.00;;;;;15.54;55.37;99222.69;5069378;28;45725;-83
2022/04/24 01:24:03;;;;;;;;;17.00;17.00;;;;;15.72;55.30;99262.25;5050447;28;47200;-84
2022/04/24 01:26:31;;;;;;;;;20.50;19.50;;;;;14.92;55.51;99135.03;5069631;28;45526;-83
2022/04/24 01:28:56;;;;;;;;;9.25;8.50;;;;;15.33;55.36;99215.81;5069112;28;45471;-83
2022/04/24 01:31:22;;;;;;;;;19.00;18.50;;;;;15.53;55.65;99263.31;5051318;28;45530;-83
2022/04/24 01:33:47;;;;;;;;;18.50;18.50;;;;;15.18;56.01;99208.91;5068680;28;45542;-83
2022/04/24 01:36:13;;;;;;;;;17.50;17.25;;;;;15.44;56.00;99264.25;5069214;28;45328;-83
2022/04/24 01:38:40;;;;;;;;;17.25;16.25;;;;;15.42;56.13;99271.34;5069102;28;45398;-83
2022/04/24 01:41:06;;;;;;;;;19.50;19.50;;;;;15.18;56.07;99244.19;5068789;28;45363;-83
2022/04/24 01:43:31;;;;;;;;;20.00;19.75;;;;;15.23;56.16;99260.03;5050528;28;48271;-83
2022/04/24 01:45:56;;;;;;;;;20.25;19.75;;;;;15.19;56.44;99269.75;5050348;28;45920;-83
2022/04/24 01:48:22;;;;;;;;;21.75;21.50;;;;;14.91;56.36;99232.03;5064798;28;45889;-83
2022/04/24 01:50:47;;;;;;;;;23.25;22.75;;;;;15.05;56.43;99260.16;5048984;28;45543;-84
2022/04/24 01:53:13;;;;;;;;;19.25;19.00;;;;;15.09;56.64;99276.00;5068764;28;46359;-83
2022/04/24 01:55:38;;;;;;;;;26.25;25.50;;;;;14.94;56.51;99247.88;5068848;28;45513;-83
2022/04/24 01:58:03;;;;;;;;;20.00;19.67;;;;;15.05;56.38;99276.03;5066863;28;45426;-83
2022/04/24 02:00:30;;;;;;;;;21.00;20.50;;;;;14.81;56.55;99246.22;5050746;28;45415;-84
2022/04/24 02:02:55;;;;;;;;;20.25;20.00;;;;;14.87;56.83;99262.03;5050472;28;48366;-83
2022/04/24 02:05:21;;;;;;;;;22.00;21.75;;;;;15.05;56.87;99294.56;5068853;28;45360;-84
2022/04/24 02:07:46;;;;;;;;;20.00;19.75;;;;;14.95;56.85;99289.31;5067126;28;45344;-84
2022/04/24 02:10:12;;;;;;;;;23.00;21.67;;;;;14.75;56.76;99261.25;5063911;28;47908;-83
2022/04/24 02:12:40;;;;;;;;;22.75;20.75;;;;;14.82;57.03;99277.06;5030066;28;47824;-83
2022/04/24 02:15:07;;;;;;;;;22.25;22.00;;;;;14.78;56.93;99270.06;5051808;28;45823;-83
2022/04/24 02:17:32;;;;;;;;;24.75;23.00;;;;;14.74;57.17;99270.06;5052008;28;45652;-83
2022/04/24 02:19:58;;;;;;;;;20.50;20.50;;;;;14.74;57.57;99281.53;5049899;28;45562;-84
2022/04/24 02:22:23;;;;;;;;;23.00;22.33;;;;;14.65;57.67;99274.53;5052026;28;46268;-83
2022/04/24 02:24:48;;;;;;;;;23.33;21.33;;;;;14.33;58.02;99228.81;5051091;28;45781;-83
2022/04/24 02:27:14;;;;;;;;;22.50;21.50;;;;;14.51;58.12;99281.66;5050320;28;45691;-83
2022/04/24 02:29:39;;;;;;;;;21.33;21.33;;;;;14.39;58.46;99260.53;5050478;28;45487;-83
2022/04/24 02:32:05;;;;;;;;;21.75;21.75;;;;;14.37;58.23;99271.09;5032993;28;47113;-83
2022/04/24 02:34:30;;;;;;;;;21.00;21.00;;;;;14.64;58.39;99323.00;5051356;28;45547;-83
2022/04/24 02:36:55;;;;;;;;;24.67;22.00;;;;;14.21;58.35;99261.47;5051387;28;45909;-83
2022/04/24 02:39:20;;;;;;;;;23.25;21.75;;;;;14.36;58.58;99279.91;5032787;28;45582;-83
2022/04/24 02:41:46;;;;;;;;;21.67;20.67;;;;;14.64;58.28;99330.06;5032204;28;52717;-83
2022/04/24 02:44:11;;;;;;;;;20.50;20.00;;;;;14.50;58.19;99300.16;5033214;28;45608;-83
2022/04/24 02:46:37;;;;;;;;;19.00;18.00;;;;;14.52;58.44;99317.75;5033362;28;45612;-83
2022/04/24 02:49:02;;;;;;;;;19.50;18.75;;;;;14.25;58.50;99271.16;5040737;28;45637;-83
2022/04/24 02:51:28;;;;;;;;;22.75;22.75;;;;;14.56;58.64;99329.22;5031287;28;45439;-83
2022/04/24 02:53:53;;;;;;;;;22.75;22.00;;;;;14.39;58.67;99311.63;5012121;28;45631;-83
2022/04/24 02:56:18;;;;;;;;;20.50;20.50;;;;;14.33;59.06;99314.28;5031318;28;45460;-83
2022/04/24 02:58:44;;;;;;;;;22.00;21.25;;;;;13.95;59.28;99266.88;5031029;28;45844;-82
2022/04/24 03:01:11;;;;;;;;;20.00;19.25;;;;;14.35;59.29;99336.31;5030919;28;45507;-82
2022/04/24 03:03:37;;;;;;;;;23.75;22.00;;;;;13.85;59.45;99263.38;5031408;28;45889;-82
2022/04/24 03:06:03;;;;;;;;;20.50;20.25;;;;;14.22;59.72;99344.28;5030817;28;45471;-83
2022/04/24 03:08:29;;;;;;;;;24.00;22.00;;;;;13.86;59.56;99291.53;5013024;28;45524;-83
2022/04/24 03:10:54;;;;;;;;;22.50;21.75;;;;;14.09;59.91;99332.88;5038914;28;45569;-84
2022/04/24 03:13:20;;;;;;;;;23.75;21.75;;;;;13.87;59.92;99309.13;5050786;28;45372;-83
2022/04/24 03:15:46;;;;;;;;;22.75;21.25;;;;;13.92;60.19;99322.31;5032628;28;45507;-83
2022/04/24 03:18:11;;;;;;;;;22.00;21.75;;;;;14.04;59.53;99348.75;5051473;28;45554;-83
2022/04/24 03:20:37;;;;;;;;;21.50;21.50;;;;;13.81;59.96;99293.28;5032574;28;47295;-83
2022/04/24 03:23:02;;;;;;;;;23.75;22.50;;;;;14.05;59.72;99344.31;5050345;28;45545;-83
2022/04/24 03:25:27;;;;;;;;;25.75;23.75;;;;;14.09;59.66;99354.00;5050728;28;45498;-83
2022/04/24 03:27:53;;;;;;;;;22.50;21.50;;;;;13.86;59.94;99320.59;5050528;28;45667;-83
2022/04/24 03:30:18;;;;;;;;;22.50;21.00;;;;;13.78;60.11;99322.34;5033133;28;48082;-83
2022/04/24 03:32:43;;;;;;;;;20.75;18.75;;;;;13.61;60.04;99295.97;5032521;28;45447;-83
2022/04/24 03:35:10;;;;;;;;;21.50;20.50;;;;;13.86;60.54;99356.69;5059406;28;45486;-83
2022/04/24 03:37:39;;;;;;;;;20.50;18.50;;;;;13.55;60.72;99311.81;5071965;28;45762;-83
2022/04/24 03:40:06;;;;;;;;;20.25;19.75;;;;;13.79;60.61;99365.47;5070367;28;46721;-83
2022/04/24 03:42:32;;;;;;;;;19.25;19.25;;;;;13.48;60.63;99323.25;5052345;28;45718;-83
2022/04/24 03:44:57;;;;;;;;;19.25;18.75;;;;;13.42;60.53;99329.41;5052800;28;45454;-83
2022/04/24 03:47:23;;;;;;;;;20.00;19.75;;;;;13.64;61.07;99364.63;5071696;28;45541;-83
2022/04/24 03:49:48;;;;;;;;;19.00;18.75;;;;;13.35;61.17;99330.28;5035323;28;48154;-84
2022/04/24 03:52:14;;;;;;;;;19.50;19.25;;;;;13.30;61.08;99328.50;5050625;28;45425;-83
2022/04/24 03:54:40;;;;;;;;;21.00;20.50;;;;;13.31;61.05;99325.88;5050370;28;45782;-83
2022/04/24 03:57:05;;;;;;;;;22.25;20.00;;;;;13.23;60.94;99311.81;5050149;28;45799;-83
2022/04/24 03:59:31;;;;;;;;;22.00;21.00;;;;;13.34;60.74;99323.22;5050408;28;46103;-83
2022/04/24 04:01:56;;;;;;;;;17.00;16.33;;;;;13.62;60.94;99371.66;5049997;28;45782;-83
2022/04/24 04:04:22;;;;;;;;;20.50;20.25;;;;;13.24;60.74;99316.19;5050418;28;45790;-83
2022/04/24 04:06:47;;;;;;;;;20.50;19.50;;;;;13.57;61.09;99368.13;5031750;28;45397;-83
2022/04/24 04:09:13;;;;;;;;;23.75;21.75;;;;;13.19;61.01;99317.91;5050283;28;45405;-83
2022/04/24 04:11:38;;;;;;;;;20.00;18.75;;;;;13.25;61.19;99331.16;5050049;28;45598;-84
2022/04/24 04:14:04;;;;;;;;;18.00;17.75;;;;;13.32;60.88;99340.84;5050040;28;45415;-83
2022/04/24 04:16:29;;;;;;;;;20.75;20.25;;;;;13.05;60.90;99295.91;5050537;28;45746;-84
2022/04/24 04:18:54;;;;;;;;;22.00;21.00;;;;;13.42;60.75;99363.72;5049911;28;45433;-83
2022/04/24 04:21:20;;;;;;;;;23.25;21.50;;;;;13.30;61.35;99347.88;5050368;28;45725;-83
2022/04/24 04:23:45;;;;;;;;;20.00;20.00;;;;;13.14;61.33;99317.91;5031477;28;45451;-84
2022/04/24 04:26:10;;;;;;;;;18.00;17.00;;;;;13.38;61.10;99364.59;5049642;28;45470;-83
2022/04/24 04:28:36;;;;;;;;;23.00;21.25;;;;;13.46;61.45;99374.28;5032089;28;48472;-83
2022/04/24 04:31:02;;;;;;;;;18.50;18.25;;;;;13.22;61.55;99343.47;5048454;28;45432;-83
2022/04/24 04:33:27;;;;;;;;;22.50;21.25;;;;;13.14;61.56;99346.03;5050048;28;45670;-83
2022/04/24 04:35:53;;;;;;;;;19.33;19.33;;;;;13.25;61.60;99370.75;5049194;28;45904;-83
2022/04/24 04:38:18;;;;;;;;;22.75;21.75;;;;;12.97;61.35;99318.78;5031118;28;47802;-83
2022/04/24 04:40:43;;;;;;;;;22.33;21.00;;;;;13.19;61.26;99362.75;5031056;28;45429;-82
2022/04/24 04:43:09;;;;;;;;;22.50;21.00;;;;;13.28;61.72;99377.78;5049919;28;45360;-82
2022/04/24 04:45:34;;;;;;;;;21.75;20.50;;;;;12.99;61.90;99327.56;5062211;28;45581;-83
2022/04/24 04:47:59;;;;;;;;;20.33;19.00;;;;;13.16;61.94;99363.66;5051224;28;48069;-82
2022/04/24 04:50:25;;;;;;;;;20.50;20.50;;;;;12.89;61.80;99330.16;5051880;28;45957;-83
2022/04/24 04:52:50;;;;;;;;;20.25;18.00;;;;;12.88;61.81;99336.31;5069529;28;45674;-83
2022/04/24 04:55:15;;;;;;;;;19.50;19.00;;;;;12.91;61.87;99349.53;5069701;28;45351;-83
2022/04/24 04:57:41;;;;;;;;;22.75;20.25;;;;;13.25;62.35;99407.69;5069899;28;46258;-83
2022/04/24 05:00:08;;;;;;;;;21.00;20.50;;;;;13.23;62.29;99425.25;5051598;28;45659;-82
2022/04/24 05:02:37;;;;;;;;;21.50;20.75;;;;;12.81;62.21;99352.16;5070182;28;45625;-83
2022/04/24 05:05:04;;;;;;;;;21.75;20.50;;;;;12.99;62.34;99385.59;5069271;28;45446;-83
2022/04/24 05:07:29;;;;;;;;;22.75;21.25;;;;;12.73;62.18;99341.56;5070153;28;46673;-81
2022/04/24 05:09:54;;;;;;;;;22.33;20.33;;;;;12.97;62.43;99389.97;5067343;28;45672;-83
2022/04/24 05:12:24;;;;;;;;;22.00;21.00;;;;;13.00;62.38;99406.69;5068715;28;45363;-82
2022/04/24 05:14:50;;;;;;;;;20.75;20.75;;;;;12.80;62.46;99366.19;5069209;28;45521;-83
2022/04/24 05:17:15;;;;;;;;;21.67;20.33;;;;;12.79;62.35;99370.56;5069630;28;46964;-82
2022/04/24 05:19:40;;;;;;;;;22.00;20.33;;;;;12.81;62.69;99379.38;5068173;28;45575;-83
2022/04/24 05:22:06;;;;;;;;;22.67;22.00;;;;;12.89;62.36;99400.50;5069449;28;45668;-83
2022/04/24 05:24:31;;;;;;;;;21.67;21.33;;;;;12.63;62.24;99353.81;5068913;28;45768;-83
2022/04/24 05:26:57;;;;;;;;;21.75;20.75;;;;;13.04;62.74;99426.91;5067469;28;47129;-83
2022/04/24 05:29:22;;;;;;;;;24.75;24.00;;;;;13.00;62.56;99413.72;5069861;28;45249;-82
2022/04/24 05:31:47;;;;;;;;;23.75;21.00;;;;;13.03;62.50;99426.91;5050702;28;45374;-83
2022/04/24 05:34:13;;;;;;;;;25.50;22.75;;;;;13.04;62.77;99423.41;5059065;28;45578;-82
2022/04/24 05:36:38;;;;;;;;;23.50;23.50;;;;;13.18;62.68;99451.59;5049080;28;47575;-82
2022/04/24 05:39:04;;;;;;;;;22.75;21.75;;;;;13.03;62.92;99430.44;5048658;28;45586;-83
2022/04/24 05:41:29;;;;;;;;;26.00;25.67;;;;;13.10;62.44;99436.59;5049115;28;45480;-83
2022/04/24 05:43:54;;;;;;;;;23.75;22.75;;;;;13.07;62.73;99426.94;5048873;28;45530;-84
2022/04/24 05:46:19;;;;;;;;;25.33;23.00;;;;;12.93;62.46;99390.84;5031008;28;47441;-83
2022/04/24 05:48:45;;;;;;;;;24.50;22.00;;;;;13.08;62.95;99428.69;5058167;28;45514;-83
2022/04/24 05:51:10;;;;;;;;;24.25;23.50;;;;;13.09;62.69;99419.91;5073250;28;45525;-83
2022/04/24 05:53:35;;;;;;;;;22.67;21.33;;;;;13.06;62.72;99404.09;5072922;28;45337;-83
2022/04/24 05:56:01;;;;;;;;;27.00;25.75;;;;;13.34;62.72;99444.63;5061822;28;45666;-84
2022/04/24 05:58:26;;;;;;;;;23.33;22.00;;;;;13.13;62.85;99403.22;5052949;28;45491;-83
2022/04/24 06:00:51;;;;;;;;;20.00;18.75;;;;;13.42;63.05;99456.09;5052280;28;45672;-84
2022/04/24 06:03:17;;;;;;;;;23.75;22.75;;;;;13.39;62.07;99434.06;5052265;28;45418;-83
2022/04/24 06:05:45;;;;;;;;;27.75;25.00;;;;;13.29;61.58;99409.44;5033763;28;48090;-83
2022/04/24 06:08:10;;;;;;;;;28.50;25.00;;;;;13.47;61.85;99427.06;5052002;28;45910;-83
2022/04/24 06:10:36;;;;;;;;;21.33;20.33;;;;;13.60;61.42;99433.25;5036399;28;45350;-82
2022/04/24 06:13:01;;;;;;;;;26.75;26.00;;;;;13.80;61.21;99472.88;5052275;28;45645;-82
2022/04/24 06:15:27;;;;;;;;;24.75;23.75;;;;;13.77;60.93;99465.81;5052037;28;46264;-83
2022/04/24 06:17:55;;;;;;;;;33.50;28.50;;;;;13.70;60.92;99450.00;5038892;28;45732;-83
2022/04/24 06:20:22;;;;;;;;;21.50;20.50;;;;;13.93;60.98;99480.78;5032397;28;45494;-83
2022/04/24 06:22:58;;;;;;;;;24.00;23.00;;;;;13.77;60.67;99455.25;5031676;28;45670;-83
2022/04/24 06:25:33;;;;;;;;;24.50;23.50;;;;;13.75;60.71;99432.38;5031390;28;45719;-83
2022/04/24 06:28:01;;;;;;;;;25.00;24.25;;;;;14.04;60.78;99477.28;5046947;28;45847;-83
2022/04/24 06:30:28;;;;;;;;;25.75;23.75;;;;;13.73;60.51;99421.81;5030694;28;45876;-81
2022/04/24 06:32:53;;;;;;;;;25.50;24.25;;;;;13.87;60.46;99448.22;5031149;28;45380;-83
2022/04/24 06:35:19;;;;;;;;;25.50;24.50;;;;;14.04;60.20;99480.81;5031499;28;46173;-83
2022/04/24 06:37:48;;;;;;;;;26.75;25.25;;;;;13.81;60.20;99427.09;5031088;28;45843;-82
2022/04/24 06:40:14;;;;;;;;;24.00;23.00;;;;;14.07;60.17;99477.28;5031430;28;45508;-83
2022/04/24 06:42:49;;;;;;;;;26.75;25.75;;;;;13.91;60.49;99434.16;5030160;28;45461;-83
2022/04/24 06:45:15;;;;;;;;;29.50;27.00;;;;;14.03;60.50;99457.03;5031293;28;46323;-83
2022/04/24 06:47:40;;;;;;;;;25.25;23.25;;;;;14.12;60.01;99464.94;5031020;28;45943;-83
2022/04/24 06:50:06;;;;;;;;;29.25;26.25;;;;;14.18;59.90;99473.75;5065786;28;45840;-83
2022/04/24 06:52:31;;;;;;;;;31.00;28.75;;;;;13.99;60.17;99434.13;5050840;28;45448;-84
2022/04/24 06:55:00;;;;;;;;;29.00;25.67;;;;;14.17;59.64;99457.91;5050400;28;46306;-82
2022/04/24 06:57:25;;;;;;;;;26.00;26.00;;;;;14.39;59.50;99493.16;5051593;28;45816;-83
2022/04/24 06:59:51;;;;;;;;;29.25;28.50;;;;;14.17;59.86;99452.63;5065181;28;45475;-83
2022/04/24 07:02:16;;;;;;;;;30.00;29.33;;;;;14.46;59.60;99490.47;5051481;28;45693;-83
2022/04/24 07:04:41;;;;;;;;;32.75;30.25;;;;;14.33;59.26;99464.06;5066572;28;49616;-82
2022/04/24 07:07:07;;;;;;;;;31.75;30.25;;;;;14.27;59.38;99457.00;5050865;28;45501;-82
2022/04/24 07:09:32;;;;;;;;;31.75;30.50;;;;;14.40;59.33;99465.81;5049457;28;45715;-82
2022/04/24 07:11:57;;;;;;;;;29.25;29.25;;;;;14.41;59.18;99473.75;5067817;28;45584;-83
2022/04/24 07:14:23;;;;;;;;;31.00;30.25;;;;;14.36;58.90;99450.84;5071697;28;45677;-83
2022/04/24 07:16:48;;;;;;;;;34.25;32.00;;;;;14.74;58.85;99508.97;5070820;28;45405;-83
2022/04/24 07:19:14;;;;;;;;;32.00;30.67;;;;;14.51;58.83;99469.34;5071844;28;45518;-83
2022/04/24 07:21:39;;;;;;;;;28.25;28.00;;;;;14.80;58.49;99502.78;5052817;28;45665;-83
2022/04/24 07:24:05;;;;;;;;;39.00;31.67;;;;;14.91;58.61;99516.88;5051850;28;49279;-82
2022/04/24 07:26:30;;;;;;;;;30.75;29.50;;;;;14.70;58.31;99483.41;5070696;28;45486;-83
2022/04/24 07:28:55;;;;;;;;;32.75;31.75;;;;;14.57;58.25;99458.75;5071110;28;45612;-82
2022/04/24 07:31:21;;;;;;;;;40.75;33.25;;;;;14.63;58.29;99458.75;5071216;28;45442;-83
2022/04/24 07:33:46;;;;;;;;;36.50;32.75;;;;;14.85;57.85;99491.31;5070632;28;45807;-83
2022/04/24 07:36:11;;;;;;;;;35.00;31.25;;;;;15.09;57.77;99531.81;5052181;28;45479;-83
2022/04/24 07:38:37;;;;;;;;;39.25;34.00;;;;;14.87;57.71;99484.25;5052056;28;45718;-82
2022/04/24 07:41:03;;;;;;;;;43.25;36.00;;;;;14.90;57.71;99478.06;5052073;28;45578;-83
2022/04/24 07:43:28;;;;;;;;;36.00;33.00;;;;;14.91;57.29;99471.88;5052689;28;47265;-82
2022/04/24 07:45:54;;;;;;;;;35.50;32.75;;;;;15.26;57.57;99523.81;5051573;28;45418;-83
2022/04/24 07:48:20;;;;;;;;;42.25;35.25;;;;;15.29;57.15;99527.31;5066864;28;45470;-83
2022/04/24 07:50:49;;;;;;;;;34.50;32.75;;;;;15.33;57.24;99534.38;5050979;28;45561;-83
2022/04/24 07:53:16;;;;;;;;;40.50;36.25;;;;;15.22;56.63;99521.19;5048477;28;47352;-83
2022/04/24 07:55:43;;;;;;;;;44.50;37.75;;;;;15.03;56.54;99486.88;5050176;28;45457;-83
2022/04/24 07:58:09;;;;;;;;;38.00;34.00;;;;;15.28;56.49;99503.53;5069850;28;45335;-82
2022/04/24 08:00:35;;;;;;;;;39.00;33.50;;;;;15.22;56.34;99497.38;5070511;28;45424;-83
2022/04/24 08:03:06;;;;;;;;;39.50;34.50;;;;;15.29;56.35;99497.34;5070582;28;45922;-83
2022/04/24 08:05:36;;;;;;;;;41.00;35.00;;;;;15.37;56.33;99503.44;5052400;28;45581;-83
2022/04/24 08:08:04;;;;;;;;;44.00;37.00;;;;;15.46;56.48;99520.16;5051266;28;45501;-83
2022/04/24 08:10:32;;;;;;;;;41.50;35.50;;;;;15.64;55.98;99534.25;5052299;28;45581;-83
2022/04/24 08:12:57;;;;;;;;;45.25;37.50;;;;;15.56;56.09;99517.47;5051998;28;48305;-83
2022/04/24 08:15:23;;;;;;;;;38.75;35.50;;;;;15.56;55.75;99509.53;5070226;28;45494;-83
2022/04/24 08:17:48;;;;;;;;;36.50;33.75;;;;;15.57;55.78;99508.66;5070233;28;45855;-83
2022/04/24 08:20:16;;;;;;;;;36.25;33.50;;;;;15.55;56.09;99497.19;5070605;28;45415;-84
2022/04/24 08:22:43;;;;;;;;;44.50;36.00;;;;;15.67;55.37;99515.72;5051188;28;48012;-82
2022/04/24 08:25:11;;;;;;;;;38.75;35.25;;;;;15.69;55.51;99509.50;5070215;28;45384;-83
2022/04/24 08:27:37;;;;;;;;;40.00;34.25;;;;;15.72;55.46;99504.19;5052172;28;45425;-83
2022/04/24 08:30:07;;;;;;;;;45.75;38.25;;;;;15.96;55.14;99537.59;5051446;28;45537;-83
2022/04/24 08:32:33;;;;;;;;;36.00;33.25;;;;;15.82;55.49;99526.22;5070264;28;46489;-83
2022/04/24 08:34:59;;;;;;;;;40.50;34.00;;;;;16.03;55.45;99545.50;5068236;28;45908;-83
2022/04/24 08:37:25;;;;;;;;;44.00;37.50;;;;;15.95;55.34;99519.91;5069751;28;45441;-84
2022/04/24 08:39:52;;;;;;;;;46.00;37.50;;;;;15.89;54.87;99493.47;5051479;28;45376;-83
2022/04/24 08:42:23;;;;;;;;;41.25;35.25;;;;;16.02;54.94;99504.88;5070015;28;45577;-83
2022/04/24 08:44:50;;;;;;;;;42.75;35.75;;;;;16.33;54.75;99545.28;5069293;28;45390;-84
2022/04/24 08:47:17;;;;;;;;;44.50;37.00;;;;;16.40;54.48;99551.38;5051772;28;45513;-84
2022/04/24 08:49:43;;;;;;;;;41.00;34.75;;;;;16.13;54.55;99492.41;5069834;28;45589;-83
2022/04/24 08:52:13;;;;;;;;;47.25;36.75;;;;;16.52;54.06;99543.34;5069299;28;45592;-83
2022/04/24 08:54:41;;;;;;;;;40.00;35.25;;;;;16.34;54.42;99520.50;5050789;28;45537;-83
2022/04/24 08:57:10;;;;;;;;;39.00;34.25;;;;;16.16;53.57;99473.84;5051319;28;45633;-83
2022/04/24 08:59:37;;;;;;;;;43.25;35.25;;;;;16.64;53.80;99550.31;5069990;28;45578;-83
2022/04/24 09:02:02;;;;;;;;;47.25;38.25;;;;;16.41;53.80;99513.41;5050825;28;47302;-83
2022/04/24 09:04:34;;;;;;;;;44.50;37.50;;;;;16.62;53.03;99531.75;5051579;28;45810;-83
2022/04/24 09:07:03;;;;;;;;;41.00;35.75;;;;;16.50;52.79;99498.28;5069134;28;45625;-83
2022/04/24 09:09:31;;;;;;;;;47.50;39.00;;;;;16.48;53.09;99493.88;5051112;28;45632;-83
2022/04/24 09:12:28;;;;;;;;;44.50;38.50;;;;;16.84;53.18;99544.84;5068955;28;46479;-83
2022/04/24 09:14:56;;;;;;;;;46.00;38.25;;;;;16.92;52.85;99548.31;5048162;28;45941;-83
2022/04/24 09:17:36;;;;;;;;;42.50;36.75;;;;;16.89;52.92;99549.19;5114728;27;427681;-84
2022/04/24 09:20:16;;;;;;;;;42.25;36.25;;;;;16.93;52.89;99545.63;5127877;27;45405;-84
2022/04/24 09:22:42;;;;;;;;;38.50;33.50;;;;;16.76;53.00;99497.16;5127388;27;45276;-84
2022/04/24 09:25:10;;;;;;;;;41.50;36.00;;;;;17.03;52.10;99536.66;5108995;27;45801;-84
2022/04/24 09:27:36;;;;;;;;;47.25;39.25;;;;;17.23;52.74;99565.66;5127615;27;46315;-84
2022/04/24 09:30:10;;;;;;;;;43.00;36.00;;;;;17.14;51.48;99544.53;5127493;27;46128;-84
2022/04/24 09:32:48;;;;;;;;;43.50;36.75;;;;;17.27;51.48;99558.53;5127965;27;45516;-84
2022/04/24 09:35:33;;;;;;;;;41.25;35.50;;;;;17.38;51.78;99569.91;5109278;27;45450;-84
2022/04/24 09:38:17;;;;;;;;;42.25;35.50;;;;;17.01;51.21;99509.28;5108026;27;48192;-84
2022/04/24 09:40:47;;;;;;;;;47.00;39.00;;;;;17.32;51.03;99548.72;5127345;27;46112;-85
2022/04/24 09:43:19;;;;;;;;;40.00;34.25;;;;;17.27;50.83;99526.66;5127878;27;45318;-84
2022/04/24 09:45:54;;;;;;;;;46.50;38.25;;;;;17.41;51.00;99535.34;5108402;27;45615;-84
2022/04/24 09:48:21;;;;;;;;;44.00;37.75;;;;;17.56;50.11;99550.22;5127554;27;46133;-84
2022/04/24 09:50:50;;;;;;;;;42.25;36.50;;;;;17.76;50.43;99568.56;5108655;27;46328;-84
2022/04/24 09:53:21;;;;;;;;;41.75;35.50;;;;;18.02;50.38;99577.06;5127818;27;45679;-84
2022/04/24 09:55:50;;;;;;;;;47.00;38.00;;;;;17.98;50.34;99538.16;5127082;27;45620;-84
2022/04/24 09:58:17;;;;;;;;;36.25;32.25;;;;;18.21;50.43;99535.13;5126859;27;45725;-85
2022/04/24 10:00:44;;;;;;;;;40.50;35.50;;;;;18.43;49.40;99548.09;5127334;27;45398;-85
2022/04/24 10:03:12;;;;;;;;;42.00;35.50;;;;;18.32;49.31;99516.31;5105430;27;45854;-85
2022/04/24 10:05:41;;;;;;;;;40.75;35.25;;;;;18.49;48.84;99535.53;5106491;27;45531;-85
2022/04/24 10:08:08;;;;;;;;;44.25;36.75;;;;;18.94;49.00;99580.03;5087199;27;47026;-84
2022/04/24 10:10:34;;;;;;;;;41.25;35.25;;;;;18.98;48.00;99556.00;5106575;27;45642;-84
2022/04/24 10:13:00;;;;;;;;;41.25;35.00;;;;;19.25;47.55;99583.00;5087600;27;45595;-85
2022/04/24 10:15:29;;;;;;;;;41.75;36.00;;;;;19.14;47.33;99553.91;5106392;27;45389;-84
2022/04/24 10:17:54;;;;;;;;;39.00;35.00;;;;;19.46;47.19;99600.38;5105923;27;45515;-84
2022/04/24 10:20:44;;;;;;;;;44.00;36.33;;;;;19.66;46.54;99602.66;5106394;27;45389;-84
2022/04/24 10:23:11;;;;;;;;;41.00;34.75;;;;;19.66;46.62;99578.69;5106033;27;45365;-84
2022/04/24 10:25:39;;;;;;;;;44.00;37.50;;;;;19.78;46.45;99571.28;5087381;27;45589;-84
2022/04/24 10:28:10;;;;;;;;;39.50;34.50;;;;;20.13;46.04;99614.09;5078413;27;48101;-85
2022/04/24 10:30:36;;;;;;;;;39.75;36.25;;;;;19.95;45.62;99583.34;5073683;27;45717;-85
2022/04/24 10:33:24;;;;;;;;;44.25;36.50;;;;;20.25;45.13;99620.03;5073658;27;45485;-84
2022/04/24 10:36:17;;;;;;;;;37.50;34.00;;;;;20.39;44.72;99622.34;5091554;27;45749;-84
2022/04/24 10:38:51;;;;;;;;;40.00;35.50;;;;;20.44;44.31;99611.56;5103782;27;45523;-84
2022/04/24 10:41:20;;;;;;;;;32.75;30.75;;;;;20.45;44.75;99606.22;5113015;27;45500;-83
2022/04/24 10:43:51;;;;;;;;;32.75;30.75;;;;;20.63;45.29;99625.41;5112559;27;45292;-84
2022/04/24 10:46:26;;;;;;;;;33.25;31.25;;;;;20.50;44.32;99607.03;5094430;27;45681;-85
2022/04/24 10:48:52;;;;;;;;;37.00;35.00;;;;;20.79;44.50;99640.16;5093581;27;46157;-83
2022/04/24 10:51:29;;;;;;;;;39.50;35.25;;;;;20.61;44.07;99604.09;5093754;27;45515;-85
2022/04/24 10:54:04;;;;;;;;;33.25;32.50;;;;;20.82;43.24;99648.06;5112217;27;45452;-84
2022/04/24 10:56:31;;;;;;;;;40.75;36.00;;;;;20.58;43.34;99612.16;5093755;27;45473;-84
2022/04/24 10:59:10;;;;;;;;;35.75;33.00;;;;;20.63;43.84;99606.72;5111417;27;46203;-84
2022/04/24 11:01:37;;;;;;;;;32.50;30.50;;;;;20.93;43.55;99648.66;5077122;27;45992;-83
2022/04/24 11:04:07;;;;;;;;;33.00;30.75;;;;;20.63;43.30;99580.88;5091726;27;45511;-84
2022/04/24 11:06:33;;;;;;;;;38.50;34.50;;;;;20.90;43.15;99615.84;5073188;27;45700;-84
2022/04/24 11:09:12;;;;;;;;;32.75;31.25;;;;;21.13;43.72;99635.69;5091371;27;45693;-84
2022/04/24 11:11:58;;;;;;;;;35.00;31.25;;;;;21.29;42.70;99633.50;5091534;27;45550;-84
2022/04/24 11:14:25;;;;;;;;;36.25;33.75;;;;;21.41;42.10;99660.81;5073358;27;45458;-84
2022/04/24 11:17:02;;;;;;;;;34.50;33.00;;;;;20.97;42.42;99578.22;5091088;27;45668;-85
2022/04/24 11:19:32;;;;;;;;;31.50;31.00;;;;;21.18;42.20;99607.94;5091874;27;46550;-85